Hartsfield Jackson Atlanta International Airport
KATL : now visible

Airfield :











YOU CAN JOIN US ON...

 
LOGIN :

Register | Disclaimer

   EN    FR    IT 

 









Legend :    VFR   Marginal VFR   IFR   Intensive IFR   Very Intensive IFR
Visi :
Ceiling :
>= 8 km
>= 3000ft
5 to 8 km
1000 to 3000 ft
1500m to 5 km
500 to 1000 ft
800 to 1500m
200 to 500 ft
< 800m
< 200 ft
Symbols :   Thunderstorms  Fog  Heavy snow  Heavy precipitations  Wind > 20 kt






- Airport Elevation : 1026 ft
- IATA code : ATL


KATL - Hartsfield Jackson Atlanta International

CURRENT METAR :
  • 071452Z 06005KT 10SM FEW022 SCT080 SCT140 BKN250 27/21 A3011 RMK AO2 SLP185 ACC NE-OHD-SW-NW T02720211 51009

EXPIRED METARs :
  • 071352Z 07006KT 9SM FEW016 SCT120 BKN250 26/21 A3011 RMK AO2 SLP184 T02610211
  • 071252Z 08008KT 10SM FEW010 SCT120 BKN250 24/21 A3010 RMK AO2 SLP180 T02440211

TAF KATL
Valid from the 07 at 14:00 until the 08 at 18:00 UTC


071332Z 0714/0818 08004KT P6SM SCT030 SCT080
FM071800 26007KT P6SM VCSH SCT045 SCT120
TEMPO 0720/0724 VRB15G25KT 4SM -TSRA BKN040CB
FM080200 33005KT P6SM FEW060 SCT120
FM081500 30006KT P6SM SCT035 SCT080
KZTL FIR / North America



MET'MAP, your aeronautical weather chart ! - Copyright ORBIFLY December 2007 - Disclaimer

ORBIFLY MET'MAP TEAM :

Programming & Development : Alexandra Zaïnal
Concept & original design : Baudouin d'Aumeries
Assistance for programming : Marc-Olivier Méhu
Technical & hardware support : Manuel Goepfert

Contact : metmap@orbifly.com




SOURCES & CREDITS :

   NOAA       Earth
Advisory